Time;durP1;ratioP1;P1;durP2;ratioP2;P2;SDS_P1;SDS_P2;PMS_P1;PMS_P2;Temp;Humidity;BMP_temperature;BMP_pressure;BME280_temperature;BME280_humidity;BME280_pressure;Samples;Min_cycle;Max_cycle;Signal;HPM_P1;HPM_P2
2022/12/03 00:00:04;;;;;;;0.00;0.00;;;;;;;;;;4973542;28;20061;-84
2022/12/03 00:02:30;;;;;;;0.00;0.00;;;;;;;;;;4973579;28;20039;-83
2022/12/03 00:04:56;;;;;;;0.00;0.00;;;;;;;;;;4973907;28;20070;-84
2022/12/03 00:07:22;;;;;;;0.00;0.00;;;;;;;;;;4973448;28;20134;-84
2022/12/03 00:09:48;;;;;;;0.00;0.00;;;;;;;;;;4973716;28;20043;-83
2022/12/03 00:12:14;;;;;;;0.00;0.00;;;;;;;;;;4974593;28;20038;-84
2022/12/03 00:14:40;;;;;;;0.00;0.00;;;;;;;;;;4973167;28;20049;-84
2022/12/03 00:17:06;;;;;;;0.00;0.00;;;;;;;;;;4973139;28;20483;-84
2022/12/03 00:19:32;;;;;;;0.00;0.00;;;;;;;;;;4973630;28;20078;-84
2022/12/03 00:21:58;;;;;;;0.00;0.00;;;;;;;;;;4973249;28;20046;-84
2022/12/03 00:24:24;;;;;;;0.00;0.00;;;;;;;;;;4973571;28;20049;-84
2022/12/03 00:26:50;;;;;;;0.00;0.00;;;;;;;;;;4973585;28;20246;-85
2022/12/03 00:29:15;;;;;;;0.00;0.00;;;;;;;;;;4973003;28;20039;-85
2022/12/03 00:31:44;;;;;;;0.00;0.00;;;;;;;;;;4973217;28;20121;-84
2022/12/03 00:34:10;;;;;;;0.00;0.00;;;;;;;;;;4973034;28;20042;-84
2022/12/03 00:36:37;;;;;;;0.00;0.00;;;;;;;;;;4973399;28;20046;-84
2022/12/03 00:39:03;;;;;;;0.00;0.00;;;;;;;;;;4972781;28;20101;-85
2022/12/03 00:41:32;;;;;;;0.00;0.00;;;;;;;;;;4973061;28;20047;-84
2022/12/03 00:44:00;;;;;;;0.00;0.00;;;;;;;;;;4973245;28;20050;-85
2022/12/03 00:46:26;;;;;;;0.00;0.00;;;;;;;;;;4973208;28;20432;-84
2022/12/03 00:48:52;;;;;;;0.00;0.00;;;;;;;;;;4972928;28;20047;-85
2022/12/03 00:51:19;;;;;;;0.00;0.00;;;;;;;;;;4973177;28;20571;-84
2022/12/03 00:53:46;;;;;;;0.00;0.00;;;;;;;;;;4972795;28;20178;-84
2022/12/03 00:56:14;;;;;;;0.00;0.00;;;;;;;;;;4972914;28;20535;-84
2022/12/03 00:58:52;;;;;;;0.00;0.00;;;;;;;;;;4972500;28;20098;-85
2022/12/03 01:01:21;;;;;;;1.25;0.00;;;;;;;;;;4972892;28;20047;-84
2022/12/03 01:03:47;;;;;;;0.08;0.03;;;;;;;;;;4972770;28;20126;-84
2022/12/03 01:06:14;;;;;;;0.00;0.00;;;;;;;;;;4972716;28;20039;-84
2022/12/03 01:08:40;;;;;;;0.10;0.10;;;;;;;;;;4972780;28;20050;-84
2022/12/03 01:11:36;;;;;;;0.00;0.00;;;;;;;;;;4972669;28;20046;-85
2022/12/03 01:13:56;;;;;;;0.60;0.28;;;;;;;;;;4972391;28;20474;-85
2022/12/03 01:16:22;;;;;;;0.30;0.30;;;;;;;;;;4972484;28;20039;-84
2022/12/03 01:18:51;;;;;;;0.00;0.00;;;;;;;;;;4972311;28;20441;-84
2022/12/03 01:21:18;;;;;;;1.58;0.40;;;;;;;;;;4972722;28;20047;-84
2022/12/03 01:23:44;;;;;;;0.00;0.00;;;;;;;;;;4972786;28;20050;-84
2022/12/03 01:26:10;;;;;;;0.00;0.00;;;;;;;;;;4974597;28;20047;-84
2022/12/03 01:28:36;;;;;;;0.00;0.00;;;;;;;;;;4976363;28;20130;-84
2022/12/03 01:33:46;;;;;;;0.00;0.00;;;;;;;;;;4976307;28;20046;-84
2022/12/03 01:36:13;;;;;;;0.32;0.30;;;;;;;;;;4976476;28;20104;-84
2022/12/03 01:38:39;;;;;;;0.05;0.05;;;;;;;;;;4976053;28;20126;-84
2022/12/03 01:41:05;;;;;;;0.10;0.10;;;;;;;;;;4976326;28;20049;-84
2022/12/03 01:43:31;;;;;;;0.00;0.00;;;;;;;;;;4976025;28;20177;-84
2022/12/03 01:45:58;;;;;;;0.00;0.00;;;;;;;;;;4976555;28;20524;-84
2022/12/03 01:48:24;;;;;;;0.08;0.05;;;;;;;;;;4975906;28;20518;-85
2022/12/03 01:50:50;;;;;;;0.00;0.00;;;;;;;;;;4976220;28;20038;-84
2022/12/03 01:53:18;;;;;;;0.00;0.00;;;;;;;;;;4976012;28;20046;-84
2022/12/03 01:55:44;;;;;;;0.00;0.00;;;;;;;;;;4976370;28;20538;-84
2022/12/03 01:58:11;;;;;;;0.00;0.00;;;;;;;;;;4975736;28;20400;-84
2022/12/03 02:00:37;;;;;;;1.25;0.47;;;;;;;;;;4975476;28;20082;-84
2022/12/03 02:03:07;;;;;;;0.00;0.00;;;;;;;;;;4975850;28;20062;-83
2022/12/03 02:05:42;;;;;;;0.20;0.10;;;;;;;;;;4975855;28;20045;-85
2022/12/03 02:08:27;;;;;;;0.00;0.00;;;;;;;;;;4975748;28;20117;-85
2022/12/03 02:10:53;;;;;;;0.00;0.00;;;;;;;;;;4975774;28;20043;-84
2022/12/03 02:13:19;;;;;;;0.00;0.00;;;;;;;;;;4975661;28;20049;-84
2022/12/03 02:15:47;;;;;;;0.00;0.00;;;;;;;;;;4959922;28;20114;-84
2022/12/03 02:18:13;;;;;;;0.15;0.15;;;;;;;;;;4975453;28;20089;-84
2022/12/03 02:21:04;;;;;;;0.00;0.00;;;;;;;;;;4975574;28;20057;-84
2022/12/03 02:23:35;;;;;;;0.22;0.10;;;;;;;;;;4975593;28;20053;-84
2022/12/03 02:26:01;;;;;;;0.00;0.00;;;;;;;;;;4975658;28;20074;-84
2022/12/03 02:28:27;;;;;;;0.00;0.00;;;;;;;;;;4975188;28;20460;-84
2022/12/03 02:30:53;;;;;;;0.00;0.00;;;;;;;;;;4975503;28;20086;-84
2022/12/03 02:33:20;;;;;;;0.00;0.00;;;;;;;;;;4975114;28;20082;-84
2022/12/03 02:35:46;;;;;;;0.00;0.00;;;;;;;;;;4975296;28;20550;-84
2022/12/03 02:38:23;;;;;;;0.00;0.00;;;;;;;;;;4975033;28;20051;-85
2022/12/03 02:40:50;;;;;;;0.00;0.00;;;;;;;;;;4975620;28;20038;-84
2022/12/03 02:43:18;;;;;;;0.00;0.00;;;;;;;;;;4975011;28;20043;-84
2022/12/03 02:45:47;;;;;;;0.40;0.20;;;;;;;;;;4959154;28;20043;-85
2022/12/03 02:48:21;;;;;;;0.00;0.00;;;;;;;;;;4975321;28;20042;-84
2022/12/03 02:50:49;;;;;;;0.00;0.00;;;;;;;;;;4975160;28;20073;-84
2022/12/03 02:53:18;;;;;;;0.00;0.00;;;;;;;;;;4975124;28;20046;-84
2022/12/03 02:55:44;;;;;;;0.47;0.47;;;;;;;;;;4974767;28;20154;-84
2022/12/03 02:58:12;;;;;;;0.00;0.00;;;;;;;;;;4974896;28;20050;-84
2022/12/03 03:00:38;;;;;;;0.00;0.00;;;;;;;;;;4974276;28;20090;-84
2022/12/03 03:03:05;;;;;;;0.32;0.08;;;;;;;;;;4974845;28;20054;-84
2022/12/03 03:05:32;;;;;;;0.00;0.00;;;;;;;;;;4974922;28;20050;-85
2022/12/03 03:08:00;;;;;;;0.00;0.00;;;;;;;;;;4975022;28;20047;-84
2022/12/03 03:10:28;;;;;;;0.20;0.10;;;;;;;;;;4974510;28;20047;-84
2022/12/03 03:12:55;;;;;;;0.10;0.10;;;;;;;;;;4958810;28;20042;-85
2022/12/03 03:15:21;;;;;;;0.10;0.05;;;;;;;;;;4974631;28;20054;-85
2022/12/03 03:17:47;;;;;;;0.63;0.32;;;;;;;;;;4974483;28;20049;-84
2022/12/03 03:20:13;;;;;;;0.00;0.00;;;;;;;;;;4974662;28;20129;-85
2022/12/03 03:22:40;;;;;;;0.00;0.00;;;;;;;;;;4974721;28;20034;-84
2022/12/03 03:25:08;;;;;;;0.00;0.00;;;;;;;;;;4974369;28;20436;-85
2022/12/03 03:27:34;;;;;;;0.70;0.52;;;;;;;;;;4974419;28;20050;-85
2022/12/03 03:30:00;;;;;;;0.30;0.10;;;;;;;;;;4974267;28;20046;-84
2022/12/03 03:32:27;;;;;;;0.00;0.00;;;;;;;;;;4974584;28;20575;-84
2022/12/03 03:34:54;;;;;;;0.00;0.00;;;;;;;;;;4974250;28;20158;-85
2022/12/03 03:37:20;;;;;;;0.00;0.00;;;;;;;;;;4974435;28;20039;-84
2022/12/03 03:39:46;;;;;;;0.00;0.00;;;;;;;;;;4974017;28;20046;-85
2022/12/03 03:42:12;;;;;;;0.08;0.00;;;;;;;;;;4974193;28;20034;-84
2022/12/03 03:44:39;;;;;;;0.00;0.00;;;;;;;;;;4974057;28;20085;-85
2022/12/03 03:47:05;;;;;;;0.00;0.00;;;;;;;;;;4974071;28;20462;-85
2022/12/03 03:49:31;;;;;;;0.00;0.00;;;;;;;;;;4973093;28;20046;-85
2022/12/03 03:51:57;;;;;;;0.00;0.00;;;;;;;;;;4974176;28;20043;-85
2022/12/03 03:54:23;;;;;;;0.00;0.00;;;;;;;;;;4973975;28;20133;-86
2022/12/03 03:56:49;;;;;;;0.00;0.00;;;;;;;;;;4974052;28;20122;-85
2022/12/03 03:59:16;;;;;;;0.10;0.10;;;;;;;;;;4973446;28;20523;-85
2022/12/03 04:01:43;;;;;;;0.00;0.00;;;;;;;;;;4957685;28;20050;-85
2022/12/03 04:04:16;;;;;;;0.00;0.00;;;;;;;;;;4973768;28;20035;-85
2022/12/03 04:06:42;;;;;;;0.00;0.00;;;;;;;;;;4973722;28;20070;-84
2022/12/03 04:09:08;;;;;;;0.00;0.00;;;;;;;;;;4973405;28;20085;-84
2022/12/03 04:14:18;;;;;;;0.00;0.00;;;;;;;;;;4973776;28;20058;-84
2022/12/03 04:16:44;;;;;;;0.10;0.03;;;;;;;;;;4973465;28;20459;-85
2022/12/03 04:19:10;;;;;;;0.00;0.00;;;;;;;;;;4973368;28;20122;-85
2022/12/03 04:24:21;;;;;;;0.43;0.22;;;;;;;;;;4973355;28;20444;-85
2022/12/03 04:29:52;;;;;;;0.00;0.00;;;;;;;;;;4918102;29;20048;-84
2022/12/03 04:37:50;;;;;;;0.00;0.00;;;;;;;;;;4973106;28;20125;-85
2022/12/03 04:43:00;;;;;;;0.05;0.05;;;;;;;;;;4973134;28;20047;-85
2022/12/03 04:45:28;;;;;;;0.20;0.10;;;;;;;;;;4973177;28;20093;-84
2022/12/03 04:47:54;;;;;;;1.25;0.30;;;;;;;;;;4973191;28;20078;-84
2022/12/03 04:50:19;;;;;;;0.00;0.00;;;;;;;;;;4972869;28;20445;-85
2022/12/03 04:52:45;;;;;;;0.38;0.38;;;;;;;;;;4973380;28;20042;-85
2022/12/03 04:55:11;;;;;;;0.05;0.03;;;;;;;;;;4972770;28;20050;-85
2022/12/03 04:57:37;;;;;;;0.00;0.00;;;;;;;;;;4972934;28;20081;-85
2022/12/03 05:00:04;;;;;;;0.00;0.00;;;;;;;;;;4972289;28;20226;-84
2022/12/03 05:02:30;;;;;;;0.00;0.00;;;;;;;;;;4972926;28;20377;-85
2022/12/03 05:04:56;;;;;;;0.00;0.00;;;;;;;;;;4972671;28;20045;-84
2022/12/03 05:07:22;;;;;;;0.00;0.00;;;;;;;;;;4972820;28;20042;-85
2022/12/03 05:09:49;;;;;;;0.30;0.20;;;;;;;;;;4972511;28;20133;-84
2022/12/03 05:12:15;;;;;;;0.00;0.00;;;;;;;;;;4972705;28;20070;-85
2022/12/03 05:14:41;;;;;;;0.00;0.00;;;;;;;;;;4972863;28;20436;-85
2022/12/03 05:17:07;;;;;;;0.00;0.00;;;;;;;;;;4972556;28;20050;-84
2022/12/03 05:22:19;;;;;;;0.00;0.00;;;;;;;;;;4972826;28;20058;-85
2022/12/03 05:24:45;;;;;;;0.00;0.00;;;;;;;;;;4972676;28;20532;-84
2022/12/03 05:27:11;;;;;;;0.00;0.00;;;;;;;;;;4972747;28;20119;-85
2022/12/03 05:29:37;;;;;;;0.00;0.00;;;;;;;;;;4972538;28;20039;-84
2022/12/03 05:32:03;;;;;;;0.00;0.00;;;;;;;;;;4972521;28;20050;-84
2022/12/03 05:34:29;;;;;;;0.77;0.28;;;;;;;;;;4972522;28;20078;-84
2022/12/03 05:36:54;;;;;;;0.00;0.00;;;;;;;;;;4972552;28;20039;-84
2022/12/03 05:39:20;;;;;;;0.00;0.00;;;;;;;;;;4972440;28;20035;-85
2022/12/03 05:44:31;;;;;;;0.00;0.00;;;;;;;;;;4972527;28;20042;-85
2022/12/03 05:46:57;;;;;;;0.10;0.10;;;;;;;;;;4972272;28;20042;-85
2022/12/03 05:49:23;;;;;;;0.00;0.00;;;;;;;;;;4972363;28;20381;-85
2022/12/03 05:51:50;;;;;;;0.00;0.00;;;;;;;;;;4972182;28;20039;-86
2022/12/03 05:54:19;;;;;;;0.40;0.30;;;;;;;;;;4972371;28;20038;-85
2022/12/03 05:56:45;;;;;;;0.00;0.00;;;;;;;;;;4972196;28;20089;-85
2022/12/03 05:59:12;;;;;;;0.00;0.00;;;;;;;;;;4971906;28;20050;-84
2022/12/03 06:01:38;;;;;;;0.00;0.00;;;;;;;;;;4972393;28;20046;-85
2022/12/03 06:04:04;;;;;;;0.00;0.00;;;;;;;;;;4972422;28;20488;-85
2022/12/03 06:06:30;;;;;;;0.25;0.20;;;;;;;;;;4972108;28;20388;-85
2022/12/03 06:08:56;;;;;;;0.00;0.00;;;;;;;;;;4972225;28;20046;-85
2022/12/03 06:11:22;;;;;;;2.40;0.65;;;;;;;;;;4972605;28;20496;-86
2022/12/03 06:13:48;;;;;;;0.13;0.00;;;;;;;;;;4975693;28;20043;-85
2022/12/03 06:16:14;;;;;;;0.20;0.15;;;;;;;;;;4975658;28;20051;-84
2022/12/03 06:18:40;;;;;;;0.00;0.00;;;;;;;;;;4975419;28;20493;-84
2022/12/03 06:21:07;;;;;;;0.35;0.30;;;;;;;;;;4975450;28;20039;-84
2022/12/03 06:23:33;;;;;;;0.00;0.00;;;;;;;;;;4975895;28;20042;-84
2022/12/03 06:25:59;;;;;;;0.00;0.00;;;;;;;;;;4975773;28;20082;-85
2022/12/03 06:28:25;;;;;;;0.00;0.00;;;;;;;;;;4975475;28;20567;-84
2022/12/03 06:30:51;;;;;;;0.38;0.38;;;;;;;;;;4975283;28;20045;-86
2022/12/03 06:33:17;;;;;;;0.00;0.00;;;;;;;;;;4975588;28;20054;-84
2022/12/03 06:35:43;;;;;;;0.00;0.00;;;;;;;;;;4975453;28;20105;-84
2022/12/03 06:38:09;;;;;;;0.00;0.00;;;;;;;;;;4975357;28;20397;-84
2022/12/03 06:40:37;;;;;;;0.00;0.00;;;;;;;;;;4975144;28;20039;-85
2022/12/03 06:43:04;;;;;;;0.20;0.20;;;;;;;;;;4975591;28;20376;-85
2022/12/03 06:45:30;;;;;;;0.00;0.00;;;;;;;;;;4975359;28;20134;-85
2022/12/03 06:47:56;;;;;;;0.63;0.38;;;;;;;;;;4974750;28;20077;-84
2022/12/03 06:50:22;;;;;;;0.00;0.00;;;;;;;;;;4975052;28;20047;-84
2022/12/03 06:52:48;;;;;;;0.00;0.00;;;;;;;;;;4974886;28;20047;-84
2022/12/03 06:55:14;;;;;;;0.35;0.15;;;;;;;;;;4975077;28;20047;-86
2022/12/03 06:57:40;;;;;;;0.00;0.00;;;;;;;;;;4974931;28;20381;-85
2022/12/03 07:00:07;;;;;;;0.00;0.00;;;;;;;;;;4974731;28;20134;-85
2022/12/03 07:02:33;;;;;;;0.00;0.00;;;;;;;;;;4974804;28;20047;-85
2022/12/03 07:04:59;;;;;;;0.00;0.00;;;;;;;;;;4974807;28;20041;-84
2022/12/03 07:07:25;;;;;;;0.00;0.00;;;;;;;;;;4974614;28;20134;-85
2022/12/03 07:09:51;;;;;;;1.35;0.38;;;;;;;;;;4974667;28;20102;-85
2022/12/03 07:12:17;;;;;;;0.00;0.00;;;;;;;;;;4974691;28;20042;-84
2022/12/03 07:14:43;;;;;;;0.00;0.00;;;;;;;;;;4974648;28;20077;-84
2022/12/03 07:17:09;;;;;;;0.20;0.10;;;;;;;;;;4974492;28;20129;-85
2022/12/03 07:19:35;;;;;;;0.00;0.00;;;;;;;;;;4974476;28;20093;-85
2022/12/03 07:22:02;;;;;;;0.43;0.43;;;;;;;;;;4974281;28;20063;-85
2022/12/03 07:24:28;;;;;;;0.20;0.10;;;;;;;;;;4973588;28;20062;-85
2022/12/03 07:26:54;;;;;;;0.00;0.00;;;;;;;;;;4974173;28;20076;-84
2022/12/03 07:29:20;;;;;;;0.40;0.40;;;;;;;;;;4974264;28;20097;-85
2022/12/03 07:31:46;;;;;;;0.20;0.20;;;;;;;;;;4974420;28;20101;-85
2022/12/03 07:34:12;;;;;;;0.05;0.00;;;;;;;;;;4974332;28;20480;-85
2022/12/03 07:36:38;;;;;;;0.20;0.13;;;;;;;;;;4974080;28;20054;-84
2022/12/03 07:39:04;;;;;;;0.00;0.00;;;;;;;;;;4974087;28;20404;-84
2022/12/03 07:41:30;;;;;;;0.00;0.00;;;;;;;;;;4973959;28;20039;-84
2022/12/03 07:43:56;;;;;;;0.00;0.00;;;;;;;;;;4974305;28;20046;-84
2022/12/03 07:46:24;;;;;;;0.00;0.00;;;;;;;;;;4973826;28;20396;-85
2022/12/03 07:48:50;;;;;;;0.00;0.00;;;;;;;;;;4974155;28;20538;-83
2022/12/03 07:51:17;;;;;;;0.00;0.00;;;;;;;;;;4974469;28;20043;-85
2022/12/03 07:53:43;;;;;;;0.00;0.00;;;;;;;;;;4957433;28;20117;-87
2022/12/03 07:56:09;;;;;;;0.00;0.00;;;;;;;;;;4973523;28;20042;-84
2022/12/03 07:58:37;;;;;;;0.00;0.00;;;;;;;;;;4973172;28;20050;-84
2022/12/03 08:01:03;;;;;;;0.20;0.20;;;;;;;;;;4973879;28;20057;-85
2022/12/03 08:03:32;;;;;;;0.55;0.20;;;;;;;;;;4974740;28;20580;-85
2022/12/03 08:05:59;;;;;;;0.00;0.00;;;;;;;;;;4957243;28;20117;-84
2022/12/03 08:08:25;;;;;;;0.28;0.20;;;;;;;;;;4972849;28;20046;-85
2022/12/03 08:10:51;;;;;;;0.00;0.00;;;;;;;;;;4973618;28;20057;-86
2022/12/03 08:13:18;;;;;;;0.63;0.52;;;;;;;;;;4973292;28;20100;-84
2022/12/03 08:15:45;;;;;;;0.00;0.00;;;;;;;;;;4957037;28;20046;-84
2022/12/03 08:18:16;;;;;;;0.08;0.05;;;;;;;;;;4955454;28;20042;-84
2022/12/03 08:20:42;;;;;;;0.00;0.00;;;;;;;;;;4987006;28;20429;-88
2022/12/03 08:23:29;;;;;;;0.60;0.52;;;;;;;;;;4972859;28;20465;-85
2022/12/03 08:26:00;;;;;;;0.17;0.10;;;;;;;;;;4973235;28;20046;-84
2022/12/03 08:28:30;;;;;;;0.40;0.40;;;;;;;;;;4972753;28;20493;-85
2022/12/03 08:31:07;;;;;;;0.10;0.10;;;;;;;;;;4956529;28;20055;-85
2022/12/03 08:33:35;;;;;;;0.25;0.20;;;;;;;;;;4972808;28;20053;-85
2022/12/03 08:36:05;;;;;;;0.10;0.10;;;;;;;;;;4956415;28;20085;-84
2022/12/03 08:38:31;;;;;;;0.47;0.30;;;;;;;;;;4956569;28;20093;-85
2022/12/03 08:40:58;;;;;;;0.00;0.00;;;;;;;;;;4974198;28;20137;-89
2022/12/03 08:43:23;;;;;;;0.00;0.00;;;;;;;;;;4960661;28;20034;-83
2022/12/03 08:45:51;;;;;;;0.00;0.00;;;;;;;;;;4992293;28;20081;-84
2022/12/03 08:48:35;;;;;;;0.00;0.00;;;;;;;;;;4976226;28;20596;-83
2022/12/03 08:51:29;;;;;;;0.20;0.13;;;;;;;;;;4992627;28;20042;-84
2022/12/03 08:53:59;;;;;;;0.20;0.00;;;;;;;;;;4988924;28;20066;-84
2022/12/03 08:56:26;;;;;;;0.00;0.00;;;;;;;;;;4992338;28;20046;-84
2022/12/03 08:58:55;;;;;;;0.00;0.00;;;;;;;;;;4991711;28;20089;-83
2022/12/03 09:01:28;;;;;;;0.00;0.00;;;;;;;;;;4992375;28;20121;-84
2022/12/03 09:03:54;;;;;;;0.00;0.00;;;;;;;;;;4993453;28;20487;-85
2022/12/03 09:06:22;;;;;;;0.00;0.00;;;;;;;;;;4992166;28;20499;-84
2022/12/03 09:08:48;;;;;;;0.30;0.30;;;;;;;;;;4993776;28;20074;-85
2022/12/03 09:11:14;;;;;;;0.00;0.00;;;;;;;;;;4992244;28;20046;-85
2022/12/03 09:13:40;;;;;;;0.00;0.00;;;;;;;;;;4992041;28;20403;-85
2022/12/03 09:16:07;;;;;;;0.00;0.00;;;;;;;;;;4992402;28;20046;-84
2022/12/03 09:18:33;;;;;;;0.00;0.00;;;;;;;;;;4991826;28;20104;-84
2022/12/03 09:20:59;;;;;;;0.35;0.35;;;;;;;;;;4992265;28;20502;-88
2022/12/03 09:23:25;;;;;;;0.00;0.00;;;;;;;;;;4992597;28;20039;-84
2022/12/03 09:25:53;;;;;;;0.00;0.00;;;;;;;;;;4992305;28;20034;-83
2022/12/03 09:28:19;;;;;;;0.00;0.00;;;;;;;;;;4992188;28;20038;-86
2022/12/03 09:30:45;;;;;;;0.00;0.00;;;;;;;;;;4992384;28;20050;-86
2022/12/03 09:33:11;;;;;;;0.00;0.00;;;;;;;;;;4991860;28;20392;-85
2022/12/03 09:35:37;;;;;;;0.00;0.00;;;;;;;;;;4991974;28;20042;-85
2022/12/03 09:38:03;;;;;;;0.00;0.00;;;;;;;;;;4991836;28;20191;-85
2022/12/03 09:40:29;;;;;;;0.00;0.00;;;;;;;;;;4991928;28;20475;-85
2022/12/03 09:42:57;;;;;;;0.00;0.00;;;;;;;;;;4992073;28;20065;-85
2022/12/03 09:45:23;;;;;;;0.00;0.00;;;;;;;;;;4992073;28;20055;-85
2022/12/03 09:47:50;;;;;;;0.00;0.00;;;;;;;;;;4994167;28;20046;-85
2022/12/03 09:50:20;;;;;;;0.03;0.03;;;;;;;;;;4996198;28;20042;-85
2022/12/03 09:52:48;;;;;;;0.00;0.00;;;;;;;;;;4995870;28;20042;-85
2022/12/03 09:55:16;;;;;;;0.00;0.00;;;;;;;;;;4995827;28;20046;-84
2022/12/03 09:57:42;;;;;;;0.00;0.00;;;;;;;;;;4995369;28;20434;-85
2022/12/03 10:00:15;;;;;;;0.00;0.00;;;;;;;;;;4995638;28;20464;-86
2022/12/03 10:02:50;;;;;;;0.00;0.00;;;;;;;;;;4996033;28;20097;-84
2022/12/03 10:05:18;;;;;;;0.00;0.00;;;;;;;;;;4995413;28;20045;-87
2022/12/03 10:07:44;;;;;;;0.00;0.00;;;;;;;;;;4995311;28;20089;-86
2022/12/03 10:10:15;;;;;;;0.00;0.00;;;;;;;;;;4995432;28;20046;-87
2022/12/03 10:12:41;;;;;;;0.20;0.13;;;;;;;;;;4995423;28;20081;-87
2022/12/03 10:15:09;;;;;;;0.00;0.00;;;;;;;;;;4995108;28;20442;-88
2022/12/03 10:17:35;;;;;;;0.00;0.00;;;;;;;;;;4995201;28;20042;-86
2022/12/03 10:20:03;;;;;;;0.00;0.00;;;;;;;;;;4994828;28;20042;-90
2022/12/03 10:22:35;;;;;;;0.00;0.00;;;;;;;;;;4995232;28;20150;-87
2022/12/03 10:25:25;;;;;;;0.00;0.00;;;;;;;;;;4995300;28;20030;-87
2022/12/03 10:27:56;;;;;;;0.00;0.00;;;;;;;;;;4968961;28;20054;-87
2022/12/03 10:30:25;;;;;;;0.00;0.00;;;;;;;;;;4995131;28;20042;-86
2022/12/03 10:32:51;;;;;;;0.00;0.00;;;;;;;;;;4995140;28;20407;-88
2022/12/03 10:35:17;;;;;;;0.00;0.00;;;;;;;;;;4994904;28;20038;-87
2022/12/03 10:37:58;;;;;;;0.08;0.08;;;;;;;;;;4994689;28;20054;-86
2022/12/03 10:40:24;;;;;;;0.75;0.40;;;;;;;;;;4994682;28;20046;-86
2022/12/03 10:42:50;;;;;;;0.00;0.00;;;;;;;;;;4994650;28;20079;-86
2022/12/03 10:45:21;;;;;;;0.00;0.00;;;;;;;;;;4994484;28;20487;-86
2022/12/03 10:48:05;;;;;;;0.00;0.00;;;;;;;;;;4995123;28;20093;-86
2022/12/03 10:50:32;;;;;;;0.20;0.20;;;;;;;;;;4994741;28;20038;-86
2022/12/03 10:52:58;;;;;;;0.80;0.57;;;;;;;;;;4994751;28;20064;-87
2022/12/03 10:55:24;;;;;;;0.10;0.03;;;;;;;;;;4994254;28;20073;-87
2022/12/03 10:57:50;;;;;;;0.00;0.00;;;;;;;;;;4978418;28;20073;-87
2022/12/03 11:00:17;;;;;;;0.00;0.00;;;;;;;;;;4994074;28;20488;-87
2022/12/03 11:02:43;;;;;;;0.00;0.00;;;;;;;;;;4994533;28;20579;-87
2022/12/03 11:05:15;;;;;;;0.00;0.00;;;;;;;;;;4994232;28;20039;-86
2022/12/03 11:07:42;;;;;;;0.00;0.00;;;;;;;;;;4978370;28;20038;-86
2022/12/03 11:10:18;;;;;;;0.20;0.20;;;;;;;;;;4994084;28;20074;-86
2022/12/03 11:13:03;;;;;;;0.22;0.13;;;;;;;;;;4994374;28;20482;-86
2022/12/03 11:15:43;;;;;;;0.00;0.00;;;;;;;;;;4994182;28;20050;-86
2022/12/03 11:18:09;;;;;;;0.17;0.00;;;;;;;;;;4994094;28;20046;-87
2022/12/03 11:20:35;;;;;;;0.00;0.00;;;;;;;;;;4993660;28;20116;-87
2022/12/03 11:23:01;;;;;;;0.75;0.75;;;;;;;;;;4994034;28;20045;-86
2022/12/03 11:25:27;;;;;;;0.00;0.00;;;;;;;;;;4993953;28;20456;-87
2022/12/03 11:28:11;;;;;;;0.00;0.00;;;;;;;;;;4993840;28;20060;-86
2022/12/03 11:30:50;;;;;;;0.00;0.00;;;;;;;;;;4993495;28;20042;-87
2022/12/03 11:33:32;;;;;;;1.13;0.38;;;;;;;;;;4993773;28;20038;-87
2022/12/03 11:35:58;;;;;;;0.57;0.52;;;;;;;;;;4993933;28;20121;-87
2022/12/03 11:38:37;;;;;;;0.00;0.00;;;;;;;;;;4993639;28;20117;-86
2022/12/03 11:41:10;;;;;;;0.63;0.32;;;;;;;;;;4993661;28;20042;-86
2022/12/03 11:43:51;;;;;;;0.20;0.10;;;;;;;;;;4993622;28;20125;-86
2022/12/03 11:46:18;;;;;;;0.00;0.00;;;;;;;;;;4993766;28;20034;-87
2022/12/03 11:48:45;;;;;;;0.10;0.00;;;;;;;;;;4993214;28;20046;-87
2022/12/03 11:51:15;;;;;;;0.00;0.00;;;;;;;;;;4994194;28;20089;-86
2022/12/03 11:53:43;;;;;;;0.00;0.00;;;;;;;;;;4993891;28;20053;-86
2022/12/03 11:56:15;;;;;;;8.95;0.80;;;;;;;;;;4993675;28;20053;-87
2022/12/03 11:58:44;;;;;;;2.72;0.55;;;;;;;;;;4993512;28;20178;-86
2022/12/03 12:01:11;;;;;;;0.00;0.00;;;;;;;;;;4993247;28;20048;-86
2022/12/03 12:03:48;;;;;;;0.00;0.00;;;;;;;;;;4993394;28;20075;-86
2022/12/03 12:06:15;;;;;;;0.00;0.00;;;;;;;;;;4992840;28;20082;-86
2022/12/03 12:08:54;;;;;;;0.00;0.00;;;;;;;;;;4993248;28;20050;-87
2022/12/03 12:11:25;;;;;;;0.00;0.00;;;;;;;;;;4993096;28;20049;-87
2022/12/03 12:14:10;;;;;;;1.73;1.63;;;;;;;;;;4993036;28;20081;-87
2022/12/03 12:16:38;;;;;;;0.77;0.20;;;;;;;;;;4993069;28;20519;-86
2022/12/03 12:19:22;;;;;;;0.45;0.20;;;;;;;;;;4992642;28;20057;-85
2022/12/03 12:21:49;;;;;;;0.00;0.00;;;;;;;;;;4993348;28;20046;-87
2022/12/03 12:24:27;;;;;;;0.00;0.00;;;;;;;;;;4993230;28;20081;-86
2022/12/03 12:26:54;;;;;;;0.22;0.03;;;;;;;;;;4992743;28;20049;-87
2022/12/03 12:29:20;;;;;;;0.00;0.00;;;;;;;;;;4992517;28;20046;-87
2022/12/03 12:31:46;;;;;;;0.00;0.00;;;;;;;;;;4992842;28;20038;-87
2022/12/03 12:34:13;;;;;;;0.00;0.00;;;;;;;;;;4992625;28;20440;-87
2022/12/03 12:36:39;;;;;;;0.00;0.00;;;;;;;;;;4992853;28;20050;-85
2022/12/03 12:39:15;;;;;;;0.00;0.00;;;;;;;;;;4993305;28;20038;-87
2022/12/03 12:41:41;;;;;;;0.10;0.10;;;;;;;;;;4992809;28;20050;-89
2022/12/03 12:44:14;;;;;;;0.00;0.00;;;;;;;;;;4992946;28;20042;-86
2022/12/03 12:46:41;;;;;;;0.00;0.00;;;;;;;;;;4992893;28;20039;-87
2022/12/03 12:49:19;;;;;;;0.00;0.00;;;;;;;;;;4992475;28;20042;-87
2022/12/03 12:51:48;;;;;;;0.00;0.00;;;;;;;;;;4992511;28;20050;-87
2022/12/03 12:54:16;;;;;;;0.00;0.00;;;;;;;;;;4992673;28;20093;-87
2022/12/03 12:56:43;;;;;;;0.10;0.10;;;;;;;;;;4992313;28;20104;-88
2022/12/03 12:59:13;;;;;;;0.05;0.05;;;;;;;;;;4992220;28;20050;-87
2022/12/03 13:01:40;;;;;;;0.00;0.00;;;;;;;;;;4992301;28;20411;-87
2022/12/03 13:04:13;;;;;;;0.00;0.00;;;;;;;;;;4992597;28;20065;-88
2022/12/03 13:06:39;;;;;;;0.00;0.00;;;;;;;;;;4992170;28;20038;-86
2022/12/03 13:09:12;;;;;;;0.65;0.25;;;;;;;;;;4992350;28;20093;-86
2022/12/03 13:11:40;;;;;;;0.00;0.00;;;;;;;;;;4992220;28;20436;-86
2022/12/03 13:14:15;;;;;;;0.22;0.20;;;;;;;;;;4992514;28;20403;-88
2022/12/03 13:16:42;;;;;;;0.00;0.00;;;;;;;;;;4985733;28;20045;-86
2022/12/03 13:19:23;;;;;;;0.08;0.08;;;;;;;;;;4991107;28;20089;-86
2022/12/03 13:21:49;;;;;;;3.30;0.10;;;;;;;;;;4993020;28;20527;-86
2022/12/03 13:24:37;;;;;;;0.00;0.00;;;;;;;;;;4996589;28;20042;-86
2022/12/03 13:27:18;;;;;;;0.00;0.00;;;;;;;;;;4996245;28;20042;-86
2022/12/03 13:29:53;;;;;;;0.20;0.20;;;;;;;;;;4995896;28;20035;-87
2022/12/03 13:32:30;;;;;;;0.00;0.00;;;;;;;;;;4996078;28;20513;-87
2022/12/03 13:34:59;;;;;;;0.55;0.55;;;;;;;;;;4995766;28;20116;-86
2022/12/03 13:37:27;;;;;;;0.22;0.17;;;;;;;;;;4996008;28;20042;-87
2022/12/03 13:39:55;;;;;;;0.20;0.13;;;;;;;;;;4995854;28;20150;-86
2022/12/03 13:42:39;;;;;;;0.55;0.55;;;;;;;;;;4979882;28;20042;-86
2022/12/03 13:45:25;;;;;;;0.00;0.00;;;;;;;;;;4978282;28;20043;-86
2022/12/03 13:47:51;;;;;;;;;;;;;;;;;;4996363;28;20054;-88
2022/12/03 13:50:24;;;;;;;1.77;1.10;;;;;;;;;;4995587;28;20366;-86
2022/12/03 13:52:51;;;;;;;0.00;0.00;;;;;;;;;;4995799;28;20392;-87
2022/12/03 13:55:27;;;;;;;0.00;0.00;;;;;;;;;;4995850;28;20100;-86
2022/12/03 13:57:53;;;;;;;0.22;0.15;;;;;;;;;;4995836;28;20046;-87
2022/12/03 14:00:19;;;;;;;0.00;0.00;;;;;;;;;;4995463;28;20137;-86
2022/12/03 14:02:45;;;;;;;0.00;0.00;;;;;;;;;;4995627;28;20419;-86
2022/12/03 14:05:11;;;;;;;0.52;0.25;;;;;;;;;;4995243;28;20046;-88
2022/12/03 14:07:37;;;;;;;0.00;0.00;;;;;;;;;;4995598;28;20045;-87
2022/12/03 14:10:04;;;;;;;0.00;0.00;;;;;;;;;;4995488;28;20104;-87
2022/12/03 14:12:32;;;;;;;1.55;1.45;;;;;;;;;;4995469;28;20050;-87
2022/12/03 14:14:59;;;;;;;0.00;0.00;;;;;;;;;;4995510;28;20511;-87
2022/12/03 14:17:25;;;;;;;0.95;0.22;;;;;;;;;;4995062;28;20042;-88
2022/12/03 14:19:51;;;;;;;0.00;0.00;;;;;;;;;;4995321;28;20039;-86
2022/12/03 14:22:18;;;;;;;0.28;0.17;;;;;;;;;;4995386;28;20042;-87
2022/12/03 14:24:44;;;;;;;0.00;0.00;;;;;;;;;;4995192;28;20488;-86
2022/12/03 14:27:10;;;;;;;0.10;0.10;;;;;;;;;;4995383;28;20085;-87
2022/12/03 14:29:36;;;;;;;0.00;0.00;;;;;;;;;;4995278;28;20081;-88
2022/12/03 14:32:02;;;;;;;0.00;0.00;;;;;;;;;;4994702;28;20050;-87
2022/12/03 14:34:28;;;;;;;0.00;0.00;;;;;;;;;;4994716;28;20050;-87
2022/12/03 14:36:54;;;;;;;0.00;0.00;;;;;;;;;;4989570;28;20047;-87
2022/12/03 14:39:20;;;;;;;0.00;0.00;;;;;;;;;;4964327;28;20402;-86
2022/12/03 14:44:33;;;;;;;0.20;0.10;;;;;;;;;;4975725;28;20047;-91
2022/12/03 14:46:59;;;;;;;0.00;0.00;;;;;;;;;;4991868;28;20043;-87
2022/12/03 14:49:25;;;;;;;5.53;0.52;;;;;;;;;;4967875;28;20038;-88
2022/12/03 14:51:51;;;;;;;0.00;0.00;;;;;;;;;;4974024;28;20050;-86
2022/12/03 14:54:17;;;;;;;0.00;0.00;;;;;;;;;;4975321;28;20499;-87
2022/12/03 14:56:43;;;;;;;0.00;0.00;;;;;;;;;;4958786;28;20047;-87
2022/12/03 14:59:10;;;;;;;0.00;0.00;;;;;;;;;;4968594;28;20449;-86
2022/12/03 15:01:36;;;;;;;0.00;0.00;;;;;;;;;;4975686;28;20102;-87
2022/12/03 15:04:02;;;;;;;0.00;0.00;;;;;;;;;;4975223;28;20174;-89
2022/12/03 15:06:28;;;;;;;0.25;0.10;;;;;;;;;;4974934;28;20173;-89
2022/12/03 15:08:54;;;;;;;0.00;0.00;;;;;;;;;;4975202;28;20078;-88
2022/12/03 15:11:20;;;;;;;0.10;0.03;;;;;;;;;;4974918;28;20476;-89
2022/12/03 15:13:46;;;;;;;0.30;0.10;;;;;;;;;;4974922;28;20053;-87
2022/12/03 15:16:12;;;;;;;0.20;0.20;;;;;;;;;;4958809;28;20043;-88